KSME/SME METAR and TAF weather

Enter ICAO airport designator
Station Type Date Time Source
KSME METAR 2024/05/28 23:55 UTC NOAA

KSME 282355Z AUTO 29007KT 10SM CLR 25/11 A2999 RMK AO2


Station Type Date Time Source
KSME Decoded METAR 2024/05/28 23:55 UTC NOAA

Somerset, Somerset-Pulaski County - J.T. Wilson Field Airport, KY, United States (KSME) 37-03-15N 084-36-54W
May 28, 2024 - 07:55 PM EDT / 2024.05.28 2355 UTC
Wind: from the WNW (290 degrees) at 8 MPH (7 KT):0
Visibility: 10 mile(s):0
Sky conditions: clear
Temperature: 77 F (25 C)
Dew Point: 51 F (11 C)
Relative Humidity: 41%
Pressure (altimeter): 29.99 in. Hg (1015 hPa)
ob: KSME 282355Z AUTO 29007KT 10SM CLR 25/11 A2999 RMK AO2
cycle: 0

Station Type Date Time Source
KSME TAF 2024/05/28 18:42 UTC NOAA